createdAt,value
2018-11-06T00:01:34.284Z,44.90
2018-11-06T00:04:05.703Z,44.03
2018-11-06T00:06:36.621Z,41.80
2018-11-06T00:09:09.415Z,44.77
2018-11-06T00:11:40.588Z,48.13
2018-11-06T00:14:11.374Z,39.33
2018-11-06T00:16:42.749Z,45.97
2018-11-06T00:19:13.524Z,44.90
2018-11-06T00:21:44.438Z,46.17
2018-11-06T00:24:15.289Z,44.30
2018-11-06T00:26:46.443Z,43.57
2018-11-06T00:29:17.220Z,44.03
2018-11-06T00:31:48.077Z,43.97
2018-11-06T00:34:19.084Z,40.63
2018-11-06T00:36:49.930Z,44.70
2018-11-06T00:39:20.944Z,54.17
2018-11-06T00:41:51.835Z,46.97
2018-11-06T00:44:22.713Z,43.93
2018-11-06T00:46:53.474Z,47.83
2018-11-06T00:49:24.237Z,46.43
2018-11-06T00:51:55.298Z,50.37
2018-11-06T00:54:26.006Z,45.67
2018-11-06T00:56:56.844Z,48.27
2018-11-06T00:59:27.590Z,47.40
2018-11-06T01:01:58.504Z,48.97
2018-11-06T01:04:29.434Z,45.43
2018-11-06T01:07:00.293Z,47.00
2018-11-06T01:09:31.164Z,42.43
2018-11-06T01:12:01.990Z,49.90
2018-11-06T01:14:32.777Z,48.40
2018-11-06T01:17:03.645Z,47.07
2018-11-06T01:19:34.479Z,49.33
2018-11-06T01:22:05.274Z,50.87
2018-11-06T01:24:36.041Z,50.90
2018-11-06T01:27:07.526Z,50.63
2018-11-06T01:29:38.329Z,52.30
2018-11-06T01:32:09.350Z,52.07
2018-11-06T01:34:40.078Z,52.00
2018-11-06T01:37:11.075Z,51.40
2018-11-06T01:39:41.891Z,52.27
2018-11-06T01:42:12.830Z,55.10
2018-11-06T01:44:43.886Z,49.60
2018-11-06T01:47:14.676Z,48.93
2018-11-06T01:49:45.533Z,52.83
2018-11-06T01:52:16.386Z,55.23
2018-11-06T01:54:47.255Z,49.70
2018-11-06T01:57:18.156Z,44.13
2018-11-06T01:59:49.065Z,47.37
2018-11-06T02:02:20.027Z,49.20
2018-11-06T02:04:50.878Z,54.60
2018-11-06T02:07:21.906Z,58.87
2018-11-06T02:09:52.739Z,54.20
2018-11-06T02:12:24.641Z,50.80
2018-11-06T02:14:55.821Z,55.80
2018-11-06T02:17:26.833Z,49.57
2018-11-06T02:19:57.796Z,51.07
2018-11-06T02:22:28.581Z,52.77
2018-11-06T02:24:59.441Z,52.60
2018-11-06T02:27:30.230Z,49.67
2018-11-06T02:30:01.171Z,51.57
2018-11-06T02:32:32.180Z,54.60
2018-11-06T02:35:02.978Z,50.27
2018-11-06T02:37:34.056Z,48.73
2018-11-06T02:40:04.953Z,57.40
2018-11-06T02:42:35.895Z,49.80
2018-11-06T02:45:07.113Z,51.03
2018-11-06T02:47:38.139Z,54.17
2018-11-06T02:50:10.111Z,53.37
2018-11-06T02:52:41.317Z,48.17
2018-11-06T02:55:12.482Z,53.77
2018-11-06T02:57:43.860Z,51.73
2018-11-06T03:00:16.536Z,56.20
2018-11-06T03:02:48.487Z,50.53
2018-11-06T03:05:19.596Z,50.87
2018-11-06T03:07:50.509Z,53.70
2018-11-06T03:10:21.533Z,48.77
2018-11-06T03:12:52.625Z,45.93
2018-11-06T03:15:23.616Z,51.57
2018-11-06T03:17:54.485Z,50.10
2018-11-06T03:20:25.475Z,47.57
2018-11-06T03:22:56.403Z,50.63
2018-11-06T03:25:27.208Z,51.50
2018-11-06T03:27:57.971Z,47.23
2018-11-06T03:30:28.904Z,52.70
2018-11-06T03:32:59.740Z,54.63
2018-11-06T03:35:30.979Z,53.57
2018-11-06T03:38:01.708Z,53.13
2018-11-06T03:40:32.459Z,53.17
2018-11-06T03:43:03.189Z,53.97
2018-11-06T03:45:33.920Z,50.80
2018-11-06T03:48:04.716Z,51.00
2018-11-06T03:50:35.653Z,54.33
2018-11-06T03:53:06.738Z,55.60
2018-11-06T03:55:37.825Z,49.37
2018-11-06T03:58:08.772Z,51.13
2018-11-06T04:00:39.523Z,58.17
2018-11-06T04:03:10.378Z,52.20
2018-11-06T04:05:41.181Z,49.20
2018-11-06T04:08:12.043Z,48.80
2018-11-06T04:10:43.171Z,51.57
2018-11-06T04:13:14.162Z,47.30
2018-11-06T04:15:45.063Z,51.60
2018-11-06T04:18:15.907Z,53.23
2018-11-06T04:20:47.097Z,53.67
2018-11-06T04:23:18.014Z,57.30
2018-11-06T04:25:48.915Z,49.97
2018-11-06T04:28:19.864Z,46.80
2018-11-06T04:30:50.910Z,45.43
2018-11-06T04:33:21.832Z,48.60
2018-11-06T04:35:53.418Z,47.90
2018-11-06T04:38:24.398Z,47.57
2018-11-06T04:40:55.444Z,49.37
2018-11-06T04:43:26.349Z,47.10
2018-11-06T04:45:57.398Z,47.67
2018-11-06T04:48:28.490Z,47.33
2018-11-06T04:50:59.694Z,48.53
2018-11-06T04:53:33.029Z,47.07
2018-11-06T04:56:05.034Z,61.37
2018-11-06T04:58:35.810Z,63.13
2018-11-06T05:01:07.216Z,49.53
2018-11-06T05:03:42.054Z,50.07
2018-11-06T05:06:12.982Z,47.53
2018-11-06T05:08:44.394Z,47.60
2018-11-06T05:11:15.750Z,47.05
2018-11-06T05:13:46.743Z,50.87
2018-11-06T05:16:17.668Z,48.23
2018-11-06T05:18:48.509Z,45.50
2018-11-06T05:21:19.640Z,47.87
2018-11-06T05:23:50.556Z,46.13
2018-11-06T05:26:21.686Z,45.33
2018-11-06T05:28:52.613Z,48.83
2018-11-06T05:31:23.822Z,49.17
2018-11-06T05:33:54.843Z,47.80
2018-11-06T05:36:25.747Z,53.70
2018-11-06T05:38:57.018Z,51.47
2018-11-06T05:41:28.038Z,49.23
2018-11-06T05:43:59.422Z,48.87
2018-11-06T05:46:30.507Z,44.83
2018-11-06T05:49:01.408Z,46.10
2018-11-06T05:51:32.734Z,43.33
2018-11-06T05:54:03.768Z,54.00
2018-11-06T05:56:34.759Z,46.67
2018-11-06T05:59:05.961Z,43.77
2018-11-06T06:01:37.025Z,41.87
2018-11-06T06:04:08.239Z,45.93
2018-11-06T06:06:39.179Z,46.90
2018-11-06T06:09:10.268Z,46.27
2018-11-06T06:11:41.175Z,48.67
2018-11-06T06:14:12.215Z,87.53
2018-11-06T06:16:43.100Z,59.10
2018-11-06T06:19:14.063Z,59.73
2018-11-06T06:21:45.271Z,46.73
2018-11-06T06:24:16.245Z,49.97
2018-11-06T06:26:47.575Z,40.37
2018-11-06T06:29:18.561Z,47.00
2018-11-06T06:31:49.644Z,53.43
2018-11-06T06:34:20.618Z,49.63
2018-11-06T06:36:51.755Z,48.47
2018-11-06T06:39:22.565Z,44.57
2018-11-06T06:41:53.426Z,41.30
2018-11-06T06:44:24.507Z,47.70
2018-11-06T06:46:55.486Z,42.07
2018-11-06T06:49:26.551Z,46.20
2018-11-06T06:51:57.964Z,39.53
2018-11-06T06:54:29.496Z,39.30
2018-11-06T06:57:01.032Z,47.03
2018-11-06T06:59:32.516Z,48.03
2018-11-06T07:02:04.573Z,43.20
2018-11-06T07:04:36.080Z,42.40
2018-11-06T07:07:07.238Z,39.40
2018-11-06T07:09:38.430Z,37.53
2018-11-06T07:12:10.007Z,39.43
2018-11-06T07:14:40.853Z,44.00
2018-11-06T07:17:12.576Z,35.97
2018-11-06T07:19:43.523Z,42.20
2018-11-06T07:22:14.908Z,37.37
2018-11-06T07:24:46.127Z,40.70
2018-11-06T07:27:17.015Z,41.50
2018-11-06T07:29:48.014Z,40.10
2018-11-06T07:32:19.021Z,36.43
2018-11-06T07:34:50.420Z,42.83
2018-11-06T07:37:21.715Z,68.50
2018-11-06T07:39:52.857Z,32.97
2018-11-06T07:42:23.712Z,34.93
2018-11-06T07:44:54.975Z,38.37
2018-11-06T07:47:26.585Z,42.13
2018-11-06T07:49:57.685Z,41.10
2018-11-06T07:52:28.592Z,33.50
2018-11-06T07:54:59.570Z,33.83
2018-11-06T07:57:30.531Z,34.50
2018-11-06T08:00:01.563Z,33.00
2018-11-06T08:02:32.570Z,37.90
2018-11-06T08:05:03.673Z,34.13
2018-11-06T08:07:34.772Z,38.07
2018-11-06T08:10:06.609Z,35.63
2018-11-06T08:12:37.709Z,38.53
2018-11-06T08:15:09.812Z,37.30
2018-11-06T08:17:41.044Z,34.17
2018-11-06T08:20:12.309Z,36.87
2018-11-06T08:22:43.397Z,38.47
2018-11-06T08:25:15.428Z,32.90
2018-11-06T08:27:46.996Z,34.43
2018-11-06T08:30:17.959Z,37.47
2018-11-06T08:32:48.896Z,36.30
2018-11-06T08:35:19.790Z,40.07
2018-11-06T08:37:51.143Z,44.40
2018-11-06T08:40:22.152Z,35.23
2018-11-06T08:42:53.491Z,35.83
2018-11-06T08:45:24.385Z,41.17
2018-11-06T08:47:55.442Z,38.23
2018-11-06T08:50:26.979Z,33.03
2018-11-06T08:52:58.005Z,33.80
2018-11-06T08:55:28.916Z,34.20
2018-11-06T08:57:59.911Z,37.63
2018-11-06T09:00:30.817Z,32.47
2018-11-06T09:03:01.832Z,33.07
2018-11-06T09:05:33.071Z,40.40
2018-11-06T09:08:04.054Z,35.17
2018-11-06T09:10:35.102Z,34.47
2018-11-06T09:13:06.149Z,30.30
2018-11-06T09:15:37.087Z,32.93
2018-11-06T09:18:08.133Z,35.37
2018-11-06T09:20:39.135Z,33.37
2018-11-06T09:23:10.119Z,33.47
2018-11-06T09:25:41.092Z,37.63
2018-11-06T09:28:12.171Z,39.03
2018-11-06T09:30:43.274Z,42.93
2018-11-06T09:33:14.199Z,39.63
2018-11-06T09:35:45.213Z,34.77
2018-11-06T09:38:16.402Z,32.07
2018-11-06T09:40:47.434Z,31.30
2018-11-06T09:43:18.628Z,36.00
2018-11-06T09:45:49.623Z,35.63
2018-11-06T09:48:20.712Z,35.80
2018-11-06T09:50:51.723Z,33.30
2018-11-06T09:53:23.002Z,31.40
2018-11-06T09:55:54.046Z,31.67
2018-11-06T09:58:25.011Z,29.30
2018-11-06T10:00:56.069Z,28.70
2018-11-06T10:03:27.061Z,33.57
2018-11-06T10:05:57.999Z,34.67
2018-11-06T10:08:29.315Z,33.00
2018-11-06T10:11:00.730Z,29.07
2018-11-06T10:13:31.548Z,35.20
2018-11-06T10:16:02.646Z,32.13
2018-11-06T10:18:33.539Z,33.57
2018-11-06T10:21:04.438Z,31.73
2018-11-06T10:23:35.414Z,31.63
2018-11-06T10:26:06.626Z,32.40
2018-11-06T10:28:37.681Z,32.53
2018-11-06T10:31:08.598Z,33.23
2018-11-06T10:33:39.463Z,31.03
2018-11-06T10:36:10.543Z,31.80
2018-11-06T10:38:41.736Z,34.97
2018-11-06T10:41:12.854Z,33.50
2018-11-06T10:43:43.849Z,32.73
2018-11-06T10:46:15.038Z,30.63
2018-11-06T10:48:45.966Z,33.53
2018-11-06T10:51:17.253Z,36.00
2018-11-06T10:53:48.337Z,37.27
2018-11-06T10:56:19.609Z,35.60
2018-11-06T10:58:50.626Z,36.17
2018-11-06T11:01:26.873Z,59.10
2018-11-06T11:04:17.451Z,29.77
2018-11-06T11:06:48.633Z,34.90
2018-11-06T11:09:19.667Z,31.40
2018-11-06T11:11:50.702Z,30.83
2018-11-06T11:14:21.667Z,33.83
2018-11-06T11:16:52.663Z,31.50
2018-11-06T11:19:23.697Z,23.83
2018-11-06T11:21:54.630Z,27.03
2018-11-06T11:24:25.610Z,32.93
2018-11-06T11:26:56.661Z,29.00
2018-11-06T11:29:27.662Z,28.87
2018-11-06T11:31:58.855Z,24.53
2018-11-06T11:34:30.061Z,28.73
2018-11-06T11:37:00.829Z,25.33
2018-11-06T11:39:31.719Z,29.10
2018-11-06T11:42:02.582Z,30.57
2018-11-06T11:44:33.576Z,23.90
2018-11-06T11:47:04.623Z,25.57
2018-11-06T11:49:35.687Z,25.43
2018-11-06T11:52:06.539Z,26.93
2018-11-06T11:54:37.730Z,23.73
2018-11-06T11:57:08.726Z,25.80
2018-11-06T11:59:39.798Z,26.43
2018-11-06T12:02:10.755Z,22.30
2018-11-06T12:04:41.737Z,24.30
2018-11-06T12:07:12.774Z,19.93
2018-11-06T12:09:43.887Z,24.50
2018-11-06T12:12:14.786Z,27.27
2018-11-06T12:14:46.097Z,19.00
2018-11-06T12:17:17.105Z,24.17
2018-11-06T12:19:48.141Z,22.33
2018-11-06T12:22:19.115Z,17.80
2018-11-06T12:24:50.360Z,16.73
2018-11-06T12:27:21.296Z,8.67
2018-11-06T12:29:52.269Z,11.93
2018-11-06T12:32:23.083Z,11.30
2018-11-06T12:34:54.178Z,12.50
2018-11-06T12:37:25.047Z,11.43
2018-11-06T12:39:56.025Z,11.80
2018-11-06T12:42:26.959Z,9.93
2018-11-06T12:44:57.891Z,15.73
2018-11-06T12:47:28.916Z,9.50
2018-11-06T12:50:00.009Z,11.63
2018-11-06T12:52:30.981Z,20.20
2018-11-06T12:55:01.934Z,10.53
2018-11-06T12:57:32.971Z,14.03
2018-11-06T13:00:04.022Z,12.43
2018-11-06T13:02:35.131Z,11.83
2018-11-06T13:05:06.491Z,11.53
2018-11-06T13:07:38.183Z,10.50
2018-11-06T13:10:09.955Z,9.77
2018-11-06T13:12:41.512Z,10.60
2018-11-06T13:15:12.867Z,7.40
2018-11-06T13:17:43.909Z,14.63
2018-11-06T13:20:16.272Z,9.90
2018-11-06T13:22:47.189Z,14.80
2018-11-06T13:25:18.394Z,8.73
2018-11-06T13:27:49.243Z,12.87
2018-11-06T13:30:20.552Z,11.07
2018-11-06T13:32:51.561Z,12.03
2018-11-06T13:35:22.667Z,11.57
2018-11-06T13:37:53.592Z,11.13
2018-11-06T13:40:24.542Z,13.03
2018-11-06T13:42:55.763Z,12.77
2018-11-06T13:45:27.207Z,10.73
2018-11-06T13:47:58.045Z,13.57
2018-11-06T13:50:28.913Z,13.93
2018-11-06T13:52:59.830Z,11.40
2018-11-06T13:55:30.937Z,14.07
2018-11-06T13:58:02.280Z,16.37
2018-11-06T14:00:33.306Z,15.93
2018-11-06T14:03:04.871Z,16.40
2018-11-06T14:05:36.234Z,12.93
2018-11-06T14:08:07.604Z,13.80
2018-11-06T14:10:38.572Z,13.53
2018-11-06T14:13:09.458Z,17.50
2018-11-06T14:15:40.447Z,15.90
2018-11-06T14:18:11.426Z,30.80
2018-11-06T14:20:42.436Z,16.53
2018-11-06T14:23:13.370Z,24.97
2018-11-06T14:25:44.299Z,18.67
2018-11-06T14:28:15.334Z,23.37
2018-11-06T14:30:46.505Z,15.03
2018-11-06T14:33:17.408Z,16.00
2018-11-06T14:35:48.486Z,17.00
2018-11-06T14:38:19.522Z,16.80
2018-11-06T14:40:50.472Z,16.67
2018-11-06T14:43:21.460Z,16.53
2018-11-06T14:45:52.542Z,17.07
2018-11-06T14:48:23.741Z,15.73
2018-11-06T14:50:54.790Z,18.27
2018-11-06T14:53:25.725Z,14.37
2018-11-06T14:55:56.868Z,16.03
2018-11-06T14:58:27.911Z,26.63
2018-11-06T15:00:58.867Z,20.50
2018-11-06T15:03:29.804Z,19.27
2018-11-06T15:06:01.027Z,14.83
2018-11-06T15:08:32.216Z,23.47
2018-11-06T15:11:03.535Z,14.80
2018-11-06T15:13:34.560Z,16.63
2018-11-06T15:16:05.704Z,17.97
2018-11-06T15:18:36.747Z,18.70
2018-11-06T15:21:08.105Z,16.60
2018-11-06T15:23:39.210Z,19.77
2018-11-06T15:26:10.334Z,18.47
2018-11-06T15:28:41.557Z,19.53
2018-11-06T15:31:12.545Z,17.70
2018-11-06T15:33:43.503Z,16.83
2018-11-06T15:36:14.515Z,26.77
2018-11-06T15:38:45.405Z,24.70
2018-11-06T15:41:16.524Z,18.57
2018-11-06T15:43:47.475Z,23.30
2018-11-06T15:46:18.567Z,22.50
2018-11-06T15:48:49.743Z,25.13
2018-11-06T15:51:20.594Z,20.60
2018-11-06T15:53:51.568Z,23.43
2018-11-06T15:56:22.638Z,19.07
2018-11-06T15:58:54.300Z,19.20
2018-11-06T16:01:26.689Z,19.27
2018-11-06T16:03:57.922Z,20.50
2018-11-06T16:06:29.131Z,19.27
2018-11-06T16:09:00.190Z,21.20
2018-11-06T16:11:31.243Z,21.97
2018-11-06T16:14:02.246Z,24.35
2018-11-06T16:16:33.434Z,25.07
2018-11-06T16:19:04.988Z,24.33
2018-11-06T16:21:36.426Z,22.07
2018-11-06T16:24:07.405Z,22.73
2018-11-06T16:26:38.570Z,19.87
2018-11-06T16:29:09.787Z,18.33
2018-11-06T16:31:40.953Z,27.53
2018-11-06T16:34:11.954Z,23.37
2018-11-06T16:36:43.136Z,20.70
2018-11-06T16:39:14.735Z,21.67
2018-11-06T16:41:46.057Z,22.17
2018-11-06T16:44:17.166Z,19.53
2018-11-06T16:46:48.518Z,20.30
2018-11-06T16:49:19.699Z,23.93
2018-11-06T16:51:50.709Z,21.03
2018-11-06T16:54:21.835Z,30.07
2018-11-06T16:56:52.874Z,26.93
2018-11-06T16:59:24.070Z,48.60
2018-11-06T17:01:54.933Z,38.33
2018-11-06T17:04:25.982Z,46.90
2018-11-06T17:06:56.919Z,45.13
2018-11-06T17:09:27.984Z,32.33
2018-11-06T17:11:59.000Z,33.00
2018-11-06T17:14:30.265Z,35.30
2018-11-06T17:17:01.361Z,36.33
2018-11-06T17:19:32.326Z,48.13
2018-11-06T17:22:03.523Z,60.63
2018-11-06T17:24:34.745Z,45.50
2018-11-06T17:27:06.277Z,38.13
2018-11-06T17:29:37.341Z,48.27
2018-11-06T17:32:08.272Z,33.43
2018-11-06T17:34:39.205Z,38.67
2018-11-06T17:37:10.362Z,50.93
2018-11-06T17:39:41.466Z,40.23
2018-11-06T17:42:12.492Z,59.23
2018-11-06T17:44:43.572Z,68.43
2018-11-06T17:47:14.690Z,55.30
2018-11-06T17:49:46.425Z,56.00
2018-11-06T17:52:17.679Z,46.40
2018-11-06T17:54:48.941Z,39.63
2018-11-06T17:57:20.043Z,38.40
2018-11-06T17:59:51.203Z,44.00
2018-11-06T18:02:22.224Z,47.23
2018-11-06T18:04:53.267Z,44.40
2018-11-06T18:07:24.457Z,36.80
2018-11-06T18:09:55.612Z,37.17
2018-11-06T18:12:27.231Z,35.37
2018-11-06T18:14:58.575Z,32.70
2018-11-06T18:17:29.568Z,32.23
2018-11-06T18:20:00.538Z,33.33
2018-11-06T18:22:31.845Z,30.67
2018-11-06T18:25:02.967Z,38.93
2018-11-06T18:27:33.898Z,35.77
2018-11-06T18:30:05.213Z,34.60
2018-11-06T18:32:36.243Z,30.50
2018-11-06T18:35:09.641Z,29.57
2018-11-06T18:37:41.194Z,30.93
2018-11-06T18:40:15.698Z,48.30
2018-11-06T18:42:47.796Z,41.63
2018-11-06T18:45:19.127Z,42.40
2018-11-06T18:47:50.532Z,38.77
2018-11-06T18:50:21.828Z,35.43
2018-11-06T18:52:53.277Z,35.43
2018-11-06T18:55:24.237Z,38.60
2018-11-06T18:57:55.735Z,38.10
2018-11-06T19:00:26.821Z,35.57
2018-11-06T19:02:57.904Z,40.57
2018-11-06T19:05:29.464Z,42.83
2018-11-06T19:08:00.582Z,40.47
2018-11-06T19:10:32.089Z,55.03
2018-11-06T19:13:03.314Z,36.43
2018-11-06T19:15:35.184Z,38.70
2018-11-06T19:18:08.193Z,39.90
2018-11-06T19:20:40.258Z,37.90
2018-11-06T19:23:11.857Z,48.67
2018-11-06T19:25:42.985Z,40.63
2018-11-06T19:28:14.080Z,43.87
2018-11-06T19:30:45.526Z,46.07
2018-11-06T19:33:16.610Z,39.03
2018-11-06T19:35:47.716Z,42.10
2018-11-06T19:38:18.810Z,40.23
2018-11-06T19:40:50.569Z,39.90
2018-11-06T19:43:21.802Z,43.23
2018-11-06T19:45:53.042Z,38.63
2018-11-06T19:48:24.918Z,39.47
2018-11-06T19:50:56.007Z,36.30
2018-11-06T19:53:27.039Z,39.67
2018-11-06T19:55:58.123Z,40.13
2018-11-06T19:58:29.568Z,43.63
2018-11-06T20:01:02.384Z,52.40
2018-11-06T20:03:34.127Z,49.90
2018-11-06T20:06:07.080Z,47.97
2018-11-06T20:08:38.614Z,58.20
2018-11-06T20:11:09.669Z,50.70
2018-11-06T20:13:41.749Z,51.93
2018-11-06T20:16:12.998Z,49.77
2018-11-06T20:18:45.451Z,51.60
2018-11-06T20:21:16.711Z,56.20
2018-11-06T20:23:49.624Z,53.37
2018-11-06T20:26:21.062Z,51.27
2018-11-06T20:28:52.350Z,52.37
2018-11-06T20:31:23.760Z,61.43
2018-11-06T20:33:58.409Z,50.07
2018-11-06T20:36:29.855Z,56.03
2018-11-06T20:39:00.849Z,49.63
2018-11-06T20:41:31.961Z,52.53
2018-11-06T20:44:05.769Z,52.47
2018-11-06T20:46:36.907Z,56.33
2018-11-06T20:49:09.346Z,51.20
2018-11-06T20:51:42.408Z,52.53
2018-11-06T20:54:13.628Z,53.50
2018-11-06T20:56:44.911Z,54.03
2018-11-06T20:59:16.247Z,52.50
2018-11-06T21:01:47.657Z,57.27
2018-11-06T21:04:18.735Z,63.73
2018-11-06T21:06:49.914Z,53.13
2018-11-06T21:09:22.005Z,50.37
2018-11-06T21:11:53.311Z,52.13
2018-11-06T21:14:24.538Z,48.43
2018-11-06T21:16:56.505Z,48.80
2018-11-06T21:19:27.728Z,49.40
2018-11-06T21:22:00.521Z,48.67
2018-11-06T21:24:31.570Z,44.13
2018-11-06T21:27:02.589Z,61.93
2018-11-06T21:29:33.751Z,72.87
2018-11-06T21:32:05.382Z,51.63
2018-11-06T21:34:36.442Z,41.53
2018-11-06T21:37:07.490Z,46.13
2018-11-06T21:39:39.463Z,43.43
2018-11-06T21:42:11.858Z,44.87
2018-11-06T21:44:43.540Z,45.73
2018-11-06T21:47:14.570Z,47.67
2018-11-06T21:49:45.537Z,50.47
2018-11-06T21:52:17.777Z,50.33
2018-11-06T21:54:49.639Z,53.77
2018-11-06T21:57:22.714Z,49.30
2018-11-06T21:59:54.809Z,49.50
2018-11-06T22:02:26.088Z,51.93
2018-11-06T22:04:57.022Z,53.00
2018-11-06T22:07:27.910Z,49.07
2018-11-06T22:09:58.998Z,50.20
2018-11-06T22:12:30.139Z,49.83
2018-11-06T22:15:01.390Z,46.83
2018-11-06T22:17:32.419Z,47.63
2018-11-06T22:20:03.367Z,46.70
2018-11-06T22:22:34.460Z,47.33
2018-11-06T22:25:05.924Z,50.23
2018-11-06T22:27:37.867Z,52.17
2018-11-06T22:30:12.155Z,50.57
2018-11-06T22:32:44.059Z,50.83
2018-11-06T22:35:16.865Z,53.37
2018-11-06T22:37:48.024Z,50.03
2018-11-06T22:40:19.242Z,56.47
2018-11-06T22:42:51.761Z,54.07
2018-11-06T22:45:22.740Z,57.30
2018-11-06T22:47:53.660Z,53.77
2018-11-06T22:50:24.880Z,49.17
2018-11-06T22:52:55.877Z,59.20
2018-11-06T22:55:26.914Z,52.47
2018-11-06T22:57:58.343Z,53.67
2018-11-06T23:00:34.494Z,50.83
2018-11-06T23:03:10.053Z,49.60
2018-11-06T23:05:41.258Z,50.87
2018-11-06T23:08:17.210Z,51.10
2018-11-06T23:10:48.311Z,52.87
2018-11-06T23:13:19.186Z,47.07
2018-11-06T23:15:50.304Z,49.17
2018-11-06T23:18:21.502Z,51.33
2018-11-06T23:20:52.965Z,48.83
2018-11-06T23:23:23.948Z,45.97
2018-11-06T23:25:54.848Z,51.00
2018-11-06T23:28:26.352Z,48.30
2018-11-06T23:30:57.292Z,49.53
2018-11-06T23:33:28.146Z,51.20
2018-11-06T23:35:59.080Z,48.80
2018-11-06T23:38:30.004Z,46.93
2018-11-06T23:41:00.757Z,50.33
2018-11-06T23:43:31.646Z,47.60
2018-11-06T23:46:02.513Z,48.73
2018-11-06T23:48:33.765Z,49.40
2018-11-06T23:51:04.593Z,49.30
2018-11-06T23:53:35.853Z,48.07
2018-11-06T23:56:06.870Z,51.67
2018-11-06T23:58:37.614Z,47.50
